Ville De Bordeaux — FZCE — position and weather

sailwx.info

Track history (hours):
 
Tides and Currents Weather Stations Pressure Air Temp Water Temp Dewpoint Dewpoint Depression Visibility Wind Speed Wind Dir Waves Ship Positions

Ville De Bordeaux

Last reported at 2017-Dec-17 17:25 UTC. Time now 2017-Dec-17 17:50 UTC.
Position N 48°24' W 005°44'.

Length 150 m; beam 24 m.

Type: Ship. MMSI: 228084000.

Date/timePositionNaut miles runAvg speedWind from/ knotsBaromVisibWave heightAir tempDewpointWater temp
2017-Dec-17 17:25N 48°24' W 005°44'14611.2
2017-Dec-17 04:24N 49°60' W 002°56'10314.8
2017-Dec-16 21:26N 50°26' W 000°20'512.4
2017-Dec-16 21:00N 50°27' W 000°12'612.0
2017-Dec-16 20:30N 50°29' W 000°03'611.6
2017-Dec-16 20:00N 50°30' E 000°06'611.3
2017-Dec-16 19:28N 50°32' E 000°15'911.7
2017-Dec-16 18:40N 50°35' E 000°29'212.4
2017-Dec-16 18:30N 50°36' E 000°32'712.9
2017-Dec-16 17:59N 50°39' E 000°41'713.8
2017-Dec-16 17:30N 50°43' E 000°49'714.5
2017-Dec-16 17:00N 50°48' E 000°58'1014.9
2017-Dec-16 16:22N 50°54' E 001°09'514.8
2017-Dec-16 16:00N 50°58' E 001°15'714.7
2017-Dec-16 15:30N 51°03' E 001°24'714.0
2017-Dec-16 15:00N 51°07' E 001°33'613.0
2017-Dec-16 14:30N 51°11' E 001°41'612.5
2017-Dec-16 14:00N 51°16' E 001°47'612.4
2017-Dec-16 13:30N 51°21' E 001°53'611.9
2017-Dec-16 13:00N 51°26' E 001°58'611.8
2017-Dec-16 12:30N 51°30' E 002°05'612.0
2017-Dec-16 12:00N 51°35' E 002°12'1012.2
2017-Dec-16 11:11N 51°42' E 002°22'7714.1
2017-Dec-16 05:45N 52°42' E 003°40'314.1
2017-Dec-16 05:31N 52°45' E 003°43'713.7
2017-Dec-16 04:59N 52°51' E 003°51'613.2
2017-Dec-16 04:30N 52°56' E 003°58'4412.2
2017-Dec-16 00:57N 53°29' E 004°44'614.1
2017-Dec-16 00:30N 53°31' E 004°54'714.7
2017-Dec-16 00:00N 53°34' E 005°05'10613.7
2017-Dec-15 16:17N 54°01' E 007°59'414.4
2017-Dec-15 16:00N 54°01' E 008°06'612.0
2017-Dec-15 15:30N 54°00' E 008°16'917.4
2017-Dec-15 15:00N 53°58' E 008°30'917.7
2017-Dec-15 14:30N 53°53' E 008°43'816.0
2017-Dec-15 14:01N 53°51' E 008°55'816.7
2017-Dec-15 13:30N 53°53' E 009°09'714.4
2017-Dec-15 13:00N 53°50' E 009°20'917.6
2017-Dec-15 12:30N 53°43' E 009°29'714.3
2017-Dec-15 12:00N 53°37' E 009°35'612.0
2017-Dec-15 11:30N 53°34' E 009°43'4 8.2
2017-Dec-15 11:00N 53°33' E 009°50'0 0.3
2017-Dec-15 10:28N 53°33' E 009°50'0 0.0
2017-Dec-15 09:58N 53°33' E 009°50'0 0.0
2017-Dec-15 09:28N 53°33' E 009°50'0 0.0
2017-Dec-15 08:58N 53°33' E 009°50'0 0.0
2017-Dec-15 08:28N 53°33' E 009°50'0 0.0
2017-Dec-15 07:58N 53°33' E 009°50'0 0.0
2017-Dec-15 07:28N 53°33' E 009°50'0 0.0
2017-Dec-15 06:58N 53°33' E 009°50'0 0.0
2017-Dec-15 06:28N 53°33' E 009°50'0 0.0
2017-Dec-15 06:01N 53°33' E 009°50'1 1.6
2017-Dec-15 05:31N 53°33' E 009°49'510.9
2017-Dec-15 05:00N 53°34' E 009°40'714.1
2017-Dec-15 04:30N 53°39' E 009°31'714.3
2017-Dec-15 04:00N 53°45' E 009°24'1611.0
2017-Dec-15 02:31N 53°51' E 008°58'1811.8
2017-Dec-15 01:00N 53°58' E 008°31'713.7
2017-Dec-15 00:30N 53°59' E 008°20'11815.7
2017-Dec-14 16:57N 53°30' E 005°05'716.3
2017-Dec-14 16:30N 53°28' E 004°54'3815.4
2017-Dec-14 14:01N 52°56' E 004°18'016.3
2017-Dec-14 14:00N 52°56' E 004°17'816.0
2017-Dec-14 13:31N 52°49' E 004°12'815.9
2017-Dec-14 13:00N 52°44' E 004°02'9616.0
2017-Dec-14 06:59N 51°32' E 002°18'715.4
2017-Dec-14 06:30N 51°26' E 002°11'815.8
2017-Dec-14 06:00N 51°18' E 002°07'714.7
2017-Dec-14 05:31N 51°13' E 001°59'816.1
2017-Dec-14 05:00N 51°08' E 001°48'816.0
2017-Dec-14 04:31N 51°03' E 001°38'816.0
2017-Dec-14 04:01N 50°57' E 001°30'815.1
2017-Dec-14 03:30N 50°50' E 001°25'5711.9
2017-Dec-13 22:44N 50°20' E 000°09'413.6
2017-Dec-13 22:26N 50°19' E 000°03'613.5
2017-Dec-13 22:00N 50°18' W 000°06'713.4
2017-Dec-13 21:30N 50°16' W 000°16'7615.0
2017-Dec-13 16:27N 49°56' W 002°10'816.2
2017-Dec-13 15:59N 49°54' W 002°22'815.8
2017-Dec-13 15:30N 49°52' W 002°33'815.4
2017-Dec-13 15:00N 49°50' W 002°44'815.5
2017-Dec-13 14:30N 49°47' W 002°56'815.6
2017-Dec-13 14:00N 49°43' W 003°06'8715.3
2017-Dec-13 08:19N 48°56' W 004°57'310.2
2017-Dec-13 08:01N 48°54' W 005°01'40 9.5
2017-Dec-13 03:48N 48°18' W 005°27'1214.8
2017-Dec-13 02:58N 48°08' W 005°17'1614.3
2017-Dec-13 01:51N 47°57' W 004°59'514.0
2017-Dec-13 01:29N 47°54' W 004°53'713.8
2017-Dec-13 01:00N 47°51' W 004°44'1913.8
2017-Dec-12 23:38N 47°41' W 004°20'1713.8
2017-Dec-12 22:25N 47°32' W 003°59'614.0
2017-Dec-12 22:00N 47°29' W 003°52'814.0
2017-Dec-12 21:27N 47°24' W 003°43'1013.8
2017-Dec-12 20:45N 47°19' W 003°31'513.8
2017-Dec-12 20:24N 47°16' W 003°25'513.8
2017-Dec-12 20:01N 47°14' W 003°18'46 2.9
2017-Dec-12 03:58N 47°17' W 002°10'0 0.0
2017-Dec-12 03:25N 47°17' W 002°10'0 0.0
2017-Dec-12 02:58N 47°17' W 002°10'0 0.0
2017-Dec-12 02:25N 47°17' W 002°10'0 0.0
2017-Dec-12 01:55N 47°17' W 002°10'0 0.0
2017-Dec-12 01:25N 47°17' W 002°10'0 0.0
2017-Dec-12 00:58N 47°17' W 002°10'0 0.0
2017-Dec-12 00:25N 47°17' W 002°10'0 0.0
2017-Dec-11 23:58N 47°17' W 002°10'19 0.7
2017-Dec-10 20:31N 47°03' W 002°29'217.7
2017-Dec-10 20:23N 47°02' W 002°31'2116.0
2017-Dec-10 19:03N 47°07' W 003°02'217.1
2017-Dec-10 18:58N 47°08' W 003°04'817.1
2017-Dec-10 18:30N 47°12' W 003°14'817.0
2017-Dec-10 18:01N 47°15' W 003°25'917.0
2017-Dec-10 17:30N 47°20' W 003°35'816.9
2017-Dec-10 17:01N 47°25' W 003°46'816.9
2017-Dec-10 16:30N 47°29' W 003°56'917.2
2017-Dec-10 15:58N 47°34' W 004°08'817.2
2017-Dec-10 15:30N 47°39' W 004°18'816.9
2017-Dec-10 15:01N 47°43' W 004°28'917.3
2017-Dec-10 14:31N 47°48' W 004°39'917.3
2017-Dec-10 14:01N 47°53' W 004°50'917.6
2017-Dec-10 13:31N 47°58' W 005°01'918.2
2017-Dec-10 13:00N 48°03' W 005°12'917.8
2017-Dec-10 12:31N 48°09' W 005°22'917.5
2017-Dec-10 12:00N 48°15' W 005°31'12612.2
2017-Dec-10 01:40N 49°49' W 003°22'416.9
2017-Dec-10 01:27N 49°51' W 003°17'1317.2
2017-Dec-10 00:42N 49°58' W 002°60'317.4
2017-Dec-10 00:30N 49°59' W 002°55'817.1
2017-Dec-10 00:00N 50°02' W 002°42'9318.8
2017-Dec-09 19:05N 50°27' W 000°23'120.2
2017-Dec-09 19:00N 50°28' W 000°21'1019.9
2017-Dec-09 18:29N 50°30' W 000°05'1219.6
2017-Dec-09 17:53N 50°34' E 000°13'719.2
2017-Dec-09 17:30N 50°36' E 000°24'918.7
2017-Dec-09 17:00N 50°39' E 000°38'918.4
2017-Dec-09 16:30N 50°44' E 000°50'917.6
2017-Dec-09 16:00N 50°49' E 001°02'916.8
2017-Dec-09 15:28N 50°53' E 001°13'816.3
2017-Dec-09 15:00N 50°58' E 001°23'917.2
2017-Dec-09 14:30N 51°04' E 001°32'917.8
2017-Dec-09 14:00N 51°11' E 001°41'918.6
2017-Dec-09 13:30N 51°18' E 001°51'1019.6
2017-Dec-09 13:00N 51°26' E 001°59'1019.6
2017-Dec-09 12:30N 51°34' E 002°10'8117.4
2017-Dec-09 07:52N 52°37' E 003°31'615.2
2017-Dec-09 07:29N 52°41' E 003°38'814.9
2017-Dec-09 06:59N 52°47' E 003°45'5515.3
2017-Dec-09 03:23N 53°30' E 004°44'615.9
2017-Dec-09 03:00N 53°32' E 004°53'1015.4
2017-Dec-09 02:22N 53°35' E 005°09'10114.1
2017-Dec-08 19:11N 54°02' E 007°54'317.5
2017-Dec-08 18:59N 54°01' E 007°60'816.8
2017-Dec-08 18:30N 54°00' E 008°14'815.8
2017-Dec-08 18:00N 53°59' E 008°27'714.4
2017-Dec-08 17:30N 53°57' E 008°39'815.5
2017-Dec-08 17:00N 53°51' E 008°47'816.1
2017-Dec-08 16:30N 53°51' E 009°00'510.2
2017-Dec-08 16:00N 53°53' E 009°08'4 7.7
2017-Dec-08 15:31N 53°53' E 009°15'4 7.8
2017-Dec-08 15:00N 53°50' E 009°20'4 7.8
2017-Dec-08 14:30N 53°47' E 009°23'510.1
2017-Dec-08 14:00N 53°43' E 009°29'713.8
2017-Dec-08 13:31N 53°37' E 009°34'713.8
2017-Dec-08 13:00N 53°34' E 009°44'3 6.8
2017-Dec-08 12:30N 53°33' E 009°50'0 0.0
2017-Dec-08 12:00N 53°33' E 009°50'0 0.0
2017-Dec-08 11:30N 53°33' E 009°50'0 0.0
2017-Dec-08 11:00N 53°33' E 009°50'0 0.0
2017-Dec-08 10:30N 53°33' E 009°50'0 0.0
2017-Dec-08 10:00N 53°33' E 009°50'0 0.0
2017-Dec-08 09:30N 53°33' E 009°50'0 0.0
2017-Dec-08 09:00N 53°33' E 009°50'0 0.0
2017-Dec-08 08:30N 53°33' E 009°50'0 0.0
2017-Dec-08 08:01N 53°33' E 009°50'0 0.0
2017-Dec-08 07:30N 53°33' E 009°50'0 0.0
2017-Dec-08 07:00N 53°33' E 009°50'0 0.0
2017-Dec-08 06:31N 53°33' E 009°50'1 1.0
2017-Dec-08 06:00N 53°33' E 009°49'3 5.6
2017-Dec-08 05:31N 53°34' E 009°45'611.0
2017-Dec-08 05:00N 53°36' E 009°36'611.7
2017-Dec-08 04:30N 53°41' E 009°30'713.4
2017-Dec-08 04:01N 53°46' E 009°24'713.8
2017-Dec-08 03:30N 53°52' E 009°17'612.3
2017-Dec-08 03:00N 53°53' E 009°07'815.4
2017-Dec-08 02:30N 53°51' E 008°55'714.7
2017-Dec-08 02:00N 53°53' E 008°43'713.9
2017-Dec-08 01:30N 53°58' E 008°35'916.3
2017-Dec-08 00:59N 53°59' E 008°20'713.1
2017-Dec-08 00:29N 53°59' E 008°09'815.7
2017-Dec-08 00:00N 53°58' E 007°56'  
Track history (hours):
 
Tides and Currents Weather Stations Pressure Air Temp Water Temp Dewpoint Dewpoint Depression Visibility Wind Speed Wind Dir Waves Ship Positions

Ville De Bordeaux

Last reported at 2017-Dec-17 17:25 UTC. Time now 2017-Dec-17 17:50 UTC.
Position N 48°24' W 005°44'.

Length 150 m; beam 24 m.

Type: Ship. MMSI: 228084000.

Date/timePositionNaut miles runAvg speedWind from/ knotsBaromVisibWave heightAir tempDewpointWater temp
2017-Dec-17 17:25N 48°24' W 005°44'14611.2
2017-Dec-17 04:24N 49°60' W 002°56'10314.8
2017-Dec-16 21:26N 50°26' W 000°20'512.4
2017-Dec-16 21:00N 50°27' W 000°12'612.0
2017-Dec-16 20:30N 50°29' W 000°03'611.6
2017-Dec-16 20:00N 50°30' E 000°06'611.3
2017-Dec-16 19:28N 50°32' E 000°15'911.7
2017-Dec-16 18:40N 50°35' E 000°29'212.4
2017-Dec-16 18:30N 50°36' E 000°32'712.9
2017-Dec-16 17:59N 50°39' E 000°41'713.8
2017-Dec-16 17:30N 50°43' E 000°49'714.5
2017-Dec-16 17:00N 50°48' E 000°58'1014.9
2017-Dec-16 16:22N 50°54' E 001°09'514.8
2017-Dec-16 16:00N 50°58' E 001°15'714.7
2017-Dec-16 15:30N 51°03' E 001°24'714.0
2017-Dec-16 15:00N 51°07' E 001°33'613.0
2017-Dec-16 14:30N 51°11' E 001°41'612.5
2017-Dec-16 14:00N 51°16' E 001°47'612.4
2017-Dec-16 13:30N 51°21' E 001°53'611.9
2017-Dec-16 13:00N 51°26' E 001°58'611.8
2017-Dec-16 12:30N 51°30' E 002°05'612.0
2017-Dec-16 12:00N 51°35' E 002°12'1012.2
2017-Dec-16 11:11N 51°42' E 002°22'7714.1
2017-Dec-16 05:45N 52°42' E 003°40'314.1
2017-Dec-16 05:31N 52°45' E 003°43'713.7
2017-Dec-16 04:59N 52°51' E 003°51'613.2
2017-Dec-16 04:30N 52°56' E 003°58'4412.2
2017-Dec-16 00:57N 53°29' E 004°44'614.1
2017-Dec-16 00:30N 53°31' E 004°54'714.7
2017-Dec-16 00:00N 53°34' E 005°05'10613.7
2017-Dec-15 16:17N 54°01' E 007°59'414.4
2017-Dec-15 16:00N 54°01' E 008°06'612.0
2017-Dec-15 15:30N 54°00' E 008°16'917.4
2017-Dec-15 15:00N 53°58' E 008°30'917.7
2017-Dec-15 14:30N 53°53' E 008°43'816.0
2017-Dec-15 14:01N 53°51' E 008°55'816.7
2017-Dec-15 13:30N 53°53' E 009°09'714.4
2017-Dec-15 13:00N 53°50' E 009°20'917.6
2017-Dec-15 12:30N 53°43' E 009°29'714.3
2017-Dec-15 12:00N 53°37' E 009°35'612.0
2017-Dec-15 11:30N 53°34' E 009°43'4 8.2
2017-Dec-15 11:00N 53°33' E 009°50'0 0.3
2017-Dec-15 10:28N 53°33' E 009°50'0 0.0
2017-Dec-15 09:58N 53°33' E 009°50'0 0.0
2017-Dec-15 09:28N 53°33' E 009°50'0 0.0
2017-Dec-15 08:58N 53°33' E 009°50'0 0.0
2017-Dec-15 08:28N 53°33' E 009°50'0 0.0
2017-Dec-15 07:58N 53°33' E 009°50'0 0.0
2017-Dec-15 07:28N 53°33' E 009°50'0 0.0
2017-Dec-15 06:58N 53°33' E 009°50'0 0.0
2017-Dec-15 06:28N 53°33' E 009°50'0 0.0
2017-Dec-15 06:01N 53°33' E 009°50'1 1.6
2017-Dec-15 05:31N 53°33' E 009°49'510.9
2017-Dec-15 05:00N 53°34' E 009°40'714.1
2017-Dec-15 04:30N 53°39' E 009°31'714.3
2017-Dec-15 04:00N 53°45' E 009°24'1611.0
2017-Dec-15 02:31N 53°51' E 008°58'1811.8
2017-Dec-15 01:00N 53°58' E 008°31'713.7
2017-Dec-15 00:30N 53°59' E 008°20'11815.7
2017-Dec-14 16:57N 53°30' E 005°05'716.3
2017-Dec-14 16:30N 53°28' E 004°54'3815.4
2017-Dec-14 14:01N 52°56' E 004°18'016.3
2017-Dec-14 14:00N 52°56' E 004°17'816.0
2017-Dec-14 13:31N 52°49' E 004°12'815.9
2017-Dec-14 13:00N 52°44' E 004°02'9616.0
2017-Dec-14 06:59N 51°32' E 002°18'715.4
2017-Dec-14 06:30N 51°26' E 002°11'815.8
2017-Dec-14 06:00N 51°18' E 002°07'714.7
2017-Dec-14 05:31N 51°13' E 001°59'816.1
2017-Dec-14 05:00N 51°08' E 001°48'816.0
2017-Dec-14 04:31N 51°03' E 001°38'816.0
2017-Dec-14 04:01N 50°57' E 001°30'815.1
2017-Dec-14 03:30N 50°50' E 001°25'5711.9
2017-Dec-13 22:44N 50°20' E 000°09'413.6
2017-Dec-13 22:26N 50°19' E 000°03'613.5
2017-Dec-13 22:00N 50°18' W 000°06'713.4
2017-Dec-13 21:30N 50°16' W 000°16'7615.0
2017-Dec-13 16:27N 49°56' W 002°10'816.2
2017-Dec-13 15:59N 49°54' W 002°22'815.8
2017-Dec-13 15:30N 49°52' W 002°33'815.4
2017-Dec-13 15:00N 49°50' W 002°44'815.5
2017-Dec-13 14:30N 49°47' W 002°56'815.6
2017-Dec-13 14:00N 49°43' W 003°06'8715.3
2017-Dec-13 08:19N 48°56' W 004°57'310.2
2017-Dec-13 08:01N 48°54' W 005°01'40 9.5
2017-Dec-13 03:48N 48°18' W 005°27'1214.8
2017-Dec-13 02:58N 48°08' W 005°17'1614.3
2017-Dec-13 01:51N 47°57' W 004°59'514.0
2017-Dec-13 01:29N 47°54' W 004°53'713.8
2017-Dec-13 01:00N 47°51' W 004°44'1913.8
2017-Dec-12 23:38N 47°41' W 004°20'1713.8
2017-Dec-12 22:25N 47°32' W 003°59'614.0
2017-Dec-12 22:00N 47°29' W 003°52'814.0
2017-Dec-12 21:27N 47°24' W 003°43'1013.8
2017-Dec-12 20:45N 47°19' W 003°31'513.8
2017-Dec-12 20:24N 47°16' W 003°25'513.8
2017-Dec-12 20:01N 47°14' W 003°18'46 2.9
2017-Dec-12 03:58N 47°17' W 002°10'0 0.0
2017-Dec-12 03:25N 47°17' W 002°10'0 0.0
2017-Dec-12 02:58N 47°17' W 002°10'0 0.0
2017-Dec-12 02:25N 47°17' W 002°10'0 0.0
2017-Dec-12 01:55N 47°17' W 002°10'0 0.0
2017-Dec-12 01:25N 47°17' W 002°10'0 0.0
2017-Dec-12 00:58N 47°17' W 002°10'0 0.0
2017-Dec-12 00:25N 47°17' W 002°10'0 0.0
2017-Dec-11 23:58N 47°17' W 002°10'19 0.7
2017-Dec-10 20:31N 47°03' W 002°29'217.7
2017-Dec-10 20:23N 47°02' W 002°31'2116.0
2017-Dec-10 19:03N 47°07' W 003°02'217.1
2017-Dec-10 18:58N 47°08' W 003°04'817.1
2017-Dec-10 18:30N 47°12' W 003°14'817.0
2017-Dec-10 18:01N 47°15' W 003°25'917.0
2017-Dec-10 17:30N 47°20' W 003°35'816.9
2017-Dec-10 17:01N 47°25' W 003°46'816.9
2017-Dec-10 16:30N 47°29' W 003°56'917.2
2017-Dec-10 15:58N 47°34' W 004°08'817.2
2017-Dec-10 15:30N 47°39' W 004°18'816.9
2017-Dec-10 15:01N 47°43' W 004°28'917.3
2017-Dec-10 14:31N 47°48' W 004°39'917.3
2017-Dec-10 14:01N 47°53' W 004°50'917.6
2017-Dec-10 13:31N 47°58' W 005°01'918.2
2017-Dec-10 13:00N 48°03' W 005°12'917.8
2017-Dec-10 12:31N 48°09' W 005°22'917.5
2017-Dec-10 12:00N 48°15' W 005°31'12612.2
2017-Dec-10 01:40N 49°49' W 003°22'416.9
2017-Dec-10 01:27N 49°51' W 003°17'1317.2
2017-Dec-10 00:42N 49°58' W 002°60'317.4
2017-Dec-10 00:30N 49°59' W 002°55'817.1
2017-Dec-10 00:00N 50°02' W 002°42'9318.8
2017-Dec-09 19:05N 50°27' W 000°23'120.2
2017-Dec-09 19:00N 50°28' W 000°21'1019.9
2017-Dec-09 18:29N 50°30' W 000°05'1219.6
2017-Dec-09 17:53N 50°34' E 000°13'719.2
2017-Dec-09 17:30N 50°36' E 000°24'918.7
2017-Dec-09 17:00N 50°39' E 000°38'918.4
2017-Dec-09 16:30N 50°44' E 000°50'917.6
2017-Dec-09 16:00N 50°49' E 001°02'916.8
2017-Dec-09 15:28N 50°53' E 001°13'816.3
2017-Dec-09 15:00N 50°58' E 001°23'917.2
2017-Dec-09 14:30N 51°04' E 001°32'917.8
2017-Dec-09 14:00N 51°11' E 001°41'918.6
2017-Dec-09 13:30N 51°18' E 001°51'1019.6
2017-Dec-09 13:00N 51°26' E 001°59'1019.6
2017-Dec-09 12:30N 51°34' E 002°10'8117.4
2017-Dec-09 07:52N 52°37' E 003°31'615.2
2017-Dec-09 07:29N 52°41' E 003°38'814.9
2017-Dec-09 06:59N 52°47' E 003°45'5515.3
2017-Dec-09 03:23N 53°30' E 004°44'615.9
2017-Dec-09 03:00N 53°32' E 004°53'1015.4
2017-Dec-09 02:22N 53°35' E 005°09'10114.1
2017-Dec-08 19:11N 54°02' E 007°54'317.5
2017-Dec-08 18:59N 54°01' E 007°60'816.8
2017-Dec-08 18:30N 54°00' E 008°14'815.8
2017-Dec-08 18:00N 53°59' E 008°27'714.4
2017-Dec-08 17:30N 53°57' E 008°39'815.5
2017-Dec-08 17:00N 53°51' E 008°47'816.1
2017-Dec-08 16:30N 53°51' E 009°00'510.2
2017-Dec-08 16:00N 53°53' E 009°08'4 7.7
2017-Dec-08 15:31N 53°53' E 009°15'4 7.8
2017-Dec-08 15:00N 53°50' E 009°20'4 7.8
2017-Dec-08 14:30N 53°47' E 009°23'510.1
2017-Dec-08 14:00N 53°43' E 009°29'713.8
2017-Dec-08 13:31N 53°37' E 009°34'713.8
2017-Dec-08 13:00N 53°34' E 009°44'3 6.8
2017-Dec-08 12:30N 53°33' E 009°50'0 0.0
2017-Dec-08 12:00N 53°33' E 009°50'0 0.0
2017-Dec-08 11:30N 53°33' E 009°50'0 0.0
2017-Dec-08 11:00N 53°33' E 009°50'0 0.0
2017-Dec-08 10:30N 53°33' E 009°50'0 0.0
2017-Dec-08 10:00N 53°33' E 009°50'0 0.0
2017-Dec-08 09:30N 53°33' E 009°50'0 0.0
2017-Dec-08 09:00N 53°33' E 009°50'0 0.0
2017-Dec-08 08:30N 53°33' E 009°50'0 0.0
2017-Dec-08 08:01N 53°33' E 009°50'0 0.0
2017-Dec-08 07:30N 53°33' E 009°50'0 0.0
2017-Dec-08 07:00N 53°33' E 009°50'0 0.0
2017-Dec-08 06:31N 53°33' E 009°50'1 1.0
2017-Dec-08 06:00N 53°33' E 009°49'3 5.6
2017-Dec-08 05:31N 53°34' E 009°45'611.0
2017-Dec-08 05:00N 53°36' E 009°36'611.7
2017-Dec-08 04:30N 53°41' E 009°30'713.4
2017-Dec-08 04:01N 53°46' E 009°24'713.8
2017-Dec-08 03:30N 53°52' E 009°17'612.3
2017-Dec-08 03:00N 53°53' E 009°07'815.4
2017-Dec-08 02:30N 53°51' E 008°55'714.7
2017-Dec-08 02:00N 53°53' E 008°43'713.9
2017-Dec-08 01:30N 53°58' E 008°35'916.3
2017-Dec-08 00:59N 53°59' E 008°20'713.1
2017-Dec-08 00:29N 53°59' E 008°09'815.7
2017-Dec-08 00:00N 53°58' E 007°56'  

Dump ship's entire track history